Panorama Heights, New Mexico
Current Conditions -  °F | °C
As of 2:55 AM on Sunday 23 Nov 2014 (Local Time) from KAEG Reporting Station
Clear Clear  
Wind Chill: 33°   Ceiling: Unl
Heat Index: 42°   Visibility: 10mi
Dew Point: 17°   Wind: 16mph
Humidity: 37%   Direction: 250°WSW
Pressure: 29.8"   Gusts: NA
Location:  35.2385°N, 106.668°W
Report Text: KAEG 230955Z AUTO 25014KT 10SM CLR 05/M08 A2980 RMK AO2 T00531085
Loading
Personal Weather Stations






























Interactive Weather Map New forecast layout! Learn more

10-Day Weather Forecast

Advertisements
Track Severe Weather on mobile